Time;durP1;ratioP1;P1;durP2;ratioP2;P2;SDS_P1;SDS_P2;PMS_P1;PMS_P2;Temp;Humidity;BMP_temperature;BMP_pressure;BME280_temperature;BME280_humidity;BME280_pressure;Samples;Min_cycle;Max_cycle;Signal;HPM_P1;HPM_P2
2021/09/20 00:02:13;;;;;;;1.50;1.10;;;14.00;98.20;;;;;;4986029;28;20992;-77
2021/09/20 00:04:39;;;;;;;1.50;1.00;;;14.00;98.20;;;;;;4984649;28;20873;-76
2021/09/20 00:07:06;;;;;;;1.50;1.00;;;14.00;98.20;;;;;;4990682;28;20511;-75
2021/09/20 00:09:33;;;;;;;1.50;0.90;;;14.00;98.20;;;;;;4990866;28;20461;-76
2021/09/20 00:12:00;;;;;;;1.50;1.00;;;14.00;98.20;;;;;;4991326;28;20465;-75
2021/09/20 00:14:27;;;;;;;1.50;1.00;;;13.90;98.20;;;;;;4989768;28;20749;-76
2021/09/20 00:16:55;;;;;;;1.50;1.10;;;13.90;98.20;;;;;;4990082;28;21193;-78
2021/09/20 00:19:22;;;;;;;1.50;1.00;;;13.90;98.20;;;;;;4989478;28;20469;-76
2021/09/20 00:21:49;;;;;;;1.50;1.00;;;13.80;98.20;;;;;;4991282;28;20468;-76
2021/09/20 00:24:16;;;;;;;1.50;1.00;;;13.70;98.20;;;;;;4988267;28;21008;-76
2021/09/20 00:26:42;;;;;;;1.50;1.07;;;13.70;98.20;;;;;;4989415;28;21002;-76
2021/09/20 00:29:09;;;;;;;1.50;1.00;;;13.70;98.20;;;;;;4990346;28;20484;-76
2021/09/20 00:31:36;;;;;;;1.50;1.00;;;13.70;98.20;;;;;;4990383;28;20473;-76
2021/09/20 00:34:04;;;;;;;1.53;1.10;;;13.70;98.20;;;;;;4988698;28;20984;-75
2021/09/20 00:36:31;;;;;;;1.50;1.00;;;13.60;98.20;;;;;;4990295;28;20570;-75
2021/09/20 00:38:58;;;;;;;1.53;1.03;;;13.60;98.20;;;;;;4990890;28;20461;-76
2021/09/20 00:41:25;;;;;;;1.53;1.10;;;13.60;98.20;;;;;;4986933;28;20948;-77
2021/09/20 00:43:52;;;;;;;1.50;1.10;;;13.60;98.20;;;;;;4988433;28;20873;-76
2021/09/20 00:46:19;;;;;;;1.50;1.00;;;13.50;98.20;;;;;;4991570;28;20465;-77
2021/09/20 00:48:45;;;;;;;1.50;1.00;;;13.50;98.20;;;;;;4990445;28;20492;-75
2021/09/20 00:51:14;;;;;;;1.50;1.00;;;13.50;98.20;;;;;;4991113;28;20983;-77
2021/09/20 00:53:40;;;;;;;1.50;1.00;;;13.40;98.20;;;;;;4991315;28;20473;-77
2021/09/20 00:56:07;;;;;;;1.53;1.00;;;13.40;98.20;;;;;;4992116;28;20465;-75
2021/09/20 00:58:35;;;;;;;1.70;1.50;;;13.30;98.20;;;;;;4990718;28;20531;-78
2021/09/20 01:01:02;;;;;;;1.50;1.00;;;13.30;98.20;;;;;;4989675;28;20549;-77
2021/09/20 01:03:29;;;;;;;1.53;1.00;;;13.30;98.20;;;;;;4992840;28;20891;-77
2021/09/20 01:05:58;;;;;;;1.53;1.10;;;13.30;98.20;;;;;;4991764;28;20495;-77
2021/09/20 01:08:26;;;;;;;1.50;1.10;;;13.30;98.20;;;;;;4987996;28;20480;-77
2021/09/20 01:10:53;;;;;;;1.50;1.10;;;13.30;98.20;;;;;;4992187;28;20472;-78
2021/09/20 01:13:20;;;;;;;1.50;0.90;;;13.20;98.20;;;;;;4992319;28;20515;-77
2021/09/20 01:15:47;;;;;;;1.50;1.10;;;13.20;98.20;;;;;;4989917;28;20461;-76
2021/09/20 01:18:14;;;;;;;1.50;1.00;;;13.20;98.20;;;;;;4989475;28;20491;-78
2021/09/20 01:20:41;;;;;;;1.60;1.10;;;13.20;98.20;;;;;;4991662;28;20465;-78
2021/09/20 01:23:09;;;;;;;1.53;1.10;;;13.20;98.20;;;;;;4987908;28;20457;-78
2021/09/20 01:25:36;;;;;;;1.50;1.00;;;13.20;98.20;;;;;;4986051;28;20489;-78
2021/09/20 01:28:04;;;;;;;1.57;1.10;;;13.10;98.20;;;;;;4990231;28;20832;-76
2021/09/20 01:30:32;;;;;;;1.50;1.00;;;13.10;98.20;;;;;;4989285;28;20464;-77
2021/09/20 01:32:58;;;;;;;1.50;1.00;;;13.10;98.20;;;;;;4988155;28;20631;-76
2021/09/20 01:35:27;;;;;;;1.50;1.10;;;13.10;98.20;;;;;;4987712;28;20466;-76
2021/09/20 01:37:54;;;;;;;1.50;1.00;;;13.10;98.20;;;;;;4988834;28;21000;-77
2021/09/20 01:40:27;;;;;;;1.50;1.10;;;13.10;98.20;;;;;;4985748;28;20481;-79
2021/09/20 01:42:53;;;;;;;1.50;1.07;;;13.10;98.20;;;;;;4974026;28;20513;-78
2021/09/20 01:45:20;;;;;;;1.50;1.10;;;13.10;98.20;;;;;;4987408;28;20484;-77
2021/09/20 01:47:47;;;;;;;1.50;1.00;;;13.10;98.20;;;;;;4988378;28;20485;-78
2021/09/20 01:50:15;;;;;;;1.53;1.00;;;13.10;98.20;;;;;;4989115;28;20922;-78
2021/09/20 01:52:42;;;;;;;1.50;0.97;;;13.00;98.20;;;;;;4987814;28;20854;-77
2021/09/20 01:55:10;;;;;;;1.53;1.10;;;13.00;98.20;;;;;;4987822;28;20979;-77
2021/09/20 01:57:40;;;;;;;1.50;1.00;;;13.00;98.20;;;;;;4986162;28;20992;-77
2021/09/20 02:00:09;;;;;;;1.57;1.10;;;13.00;98.20;;;;;;4989093;28;20830;-75
2021/09/20 02:02:36;;;;;;;1.53;1.00;;;13.00;98.20;;;;;;4985499;28;20837;-76
2021/09/20 02:05:03;;;;;;;1.50;1.00;;;13.00;98.20;;;;;;4988186;28;20488;-76
2021/09/20 02:07:30;;;;;;;1.53;1.10;;;12.90;98.20;;;;;;4988439;28;20488;-76
2021/09/20 02:09:57;;;;;;;1.50;1.10;;;12.90;98.20;;;;;;4989352;28;20719;-76
2021/09/20 02:12:24;;;;;;;1.50;1.03;;;12.90;98.20;;;;;;4989289;28;20461;-77
2021/09/20 02:14:52;;;;;;;1.50;1.10;;;12.90;98.20;;;;;;4986219;28;20475;-77
2021/09/20 02:17:19;;;;;;;1.50;1.10;;;12.90;98.20;;;;;;4988442;28;20492;-76
2021/09/20 02:19:46;;;;;;;1.53;1.10;;;12.80;98.20;;;;;;4985580;28;20473;-77
2021/09/20 02:22:12;;;;;;;1.50;1.07;;;12.80;98.20;;;;;;4992684;28;20604;-77
2021/09/20 02:24:39;;;;;;;1.60;1.37;;;12.80;98.20;;;;;;4989546;28;20472;-77
2021/09/20 02:27:06;;;;;;;1.53;1.10;;;12.70;98.20;;;;;;4992956;28;20481;-76
2021/09/20 02:29:34;;;;;;;1.50;1.00;;;12.70;98.20;;;;;;4992207;28;20479;-75
2021/09/20 02:32:02;;;;;;;1.50;1.10;;;12.70;98.20;;;;;;4988148;28;20956;-77
2021/09/20 02:34:29;;;;;;;1.50;1.10;;;12.60;98.20;;;;;;4990195;28;20980;-76
2021/09/20 02:36:56;;;;;;;1.53;1.10;;;12.60;98.20;;;;;;4989846;28;20490;-76
2021/09/20 02:39:23;;;;;;;1.53;1.10;;;12.60;98.20;;;;;;4991848;28;20477;-77
2021/09/20 02:41:50;;;;;;;1.57;1.10;;;12.60;98.20;;;;;;4987735;28;20465;-75
2021/09/20 02:44:17;;;;;;;1.60;1.20;;;12.50;98.20;;;;;;4992536;28;20670;-77
2021/09/20 02:46:44;;;;;;;1.50;1.10;;;12.50;98.20;;;;;;4991969;28;21000;-76
2021/09/20 02:49:12;;;;;;;1.50;1.00;;;12.50;98.20;;;;;;4990115;28;20475;-76
2021/09/20 02:51:39;;;;;;;1.50;1.07;;;12.50;98.20;;;;;;4992678;28;20807;-75
2021/09/20 02:54:06;;;;;;;1.50;1.10;;;12.50;98.20;;;;;;4992515;28;20461;-76
2021/09/20 02:56:32;;;;;;;1.50;1.10;;;12.40;98.20;;;;;;4992293;28;20564;-76
2021/09/20 02:58:59;;;;;;;1.50;1.10;;;12.40;98.20;;;;;;4990257;28;20465;-76
2021/09/20 03:01:26;;;;;;;1.57;1.10;;;12.40;98.20;;;;;;4992167;28;20553;-75
2021/09/20 03:03:53;;;;;;;1.53;1.10;;;12.40;98.20;;;;;;4991646;28;20467;-77
2021/09/20 03:06:21;;;;;;;1.53;1.10;;;12.40;98.20;;;;;;4986745;28;20460;-76
2021/09/20 03:08:48;;;;;;;1.60;1.30;;;12.30;98.20;;;;;;4988006;28;20658;-76
2021/09/20 03:11:15;;;;;;;1.50;1.10;;;12.30;98.20;;;;;;4991651;28;20473;-77
2021/09/20 03:13:42;;;;;;;1.50;1.10;;;12.30;98.20;;;;;;4988923;28;20555;-76
2021/09/20 03:16:08;;;;;;;1.57;1.10;;;12.30;98.20;;;;;;4985652;28;20489;-76
2021/09/20 03:18:35;;;;;;;1.60;1.20;;;12.30;98.20;;;;;;4991127;28;20492;-78
2021/09/20 03:21:02;;;;;;;1.50;1.07;;;12.30;98.20;;;;;;4988329;28;20473;-77
2021/09/20 03:23:30;;;;;;;1.53;1.10;;;12.20;98.20;;;;;;4986629;28;20468;-77
2021/09/20 03:25:57;;;;;;;1.53;1.10;;;12.20;98.20;;;;;;4989038;28;20467;-78
2021/09/20 03:28:24;;;;;;;1.50;1.10;;;12.20;98.20;;;;;;4987647;28;20486;-77
2021/09/20 03:30:50;;;;;;;1.53;1.10;;;12.20;98.20;;;;;;4990940;28;20465;-77
2021/09/20 03:33:17;;;;;;;1.50;1.10;;;12.10;98.20;;;;;;4986496;28;20487;-77
2021/09/20 03:35:44;;;;;;;1.57;1.17;;;12.00;98.20;;;;;;4990910;28;20489;-76
2021/09/20 03:38:11;;;;;;;1.57;1.10;;;12.00;98.20;;;;;;4991577;28;20849;-75
2021/09/20 03:40:39;;;;;;;1.50;1.10;;;12.00;98.20;;;;;;4985971;28;20480;-77
2021/09/20 03:43:06;;;;;;;1.50;1.10;;;12.00;98.20;;;;;;4986154;28;20461;-76
2021/09/20 03:45:33;;;;;;;1.50;1.10;;;12.00;98.20;;;;;;4988622;28;20461;-76
2021/09/20 03:48:00;;;;;;;1.50;1.10;;;12.00;98.20;;;;;;4987666;28;20492;-77
2021/09/20 03:50:26;;;;;;;1.57;1.10;;;12.00;98.20;;;;;;4991602;28;20460;-78
2021/09/20 03:52:53;;;;;;;1.53;1.10;;;12.00;98.20;;;;;;4988990;28;20484;-79
2021/09/20 03:55:20;;;;;;;1.60;1.20;;;12.00;98.20;;;;;;4988200;28;20972;-77
2021/09/20 03:57:48;;;;;;;1.53;1.10;;;12.00;98.20;;;;;;4990112;28;21096;-77
2021/09/20 04:00:16;;;;;;;1.57;1.20;;;11.90;98.20;;;;;;4990826;28;20457;-78
2021/09/20 04:02:43;;;;;;;1.50;1.10;;;11.90;98.20;;;;;;4991053;28;20532;-78
2021/09/20 04:05:11;;;;;;;1.53;1.10;;;11.90;98.20;;;;;;4989970;28;20555;-76
2021/09/20 04:07:39;;;;;;;1.50;1.10;;;11.90;98.20;;;;;;4986543;28;20512;-76
2021/09/20 04:10:07;;;;;;;1.60;1.20;;;11.90;98.20;;;;;;4991306;28;20469;-76
2021/09/20 04:12:34;;;;;;;1.53;1.10;;;11.90;98.20;;;;;;4995179;28;20980;-78
2021/09/20 04:15:02;;;;;;;1.50;1.20;;;11.90;98.20;;;;;;4987708;28;20464;-76
2021/09/20 04:17:29;;;;;;;1.53;1.20;;;11.80;98.20;;;;;;4990044;28;20563;-77
2021/09/20 04:19:56;;;;;;;1.50;1.10;;;11.80;98.20;;;;;;4984658;28;20469;-75
2021/09/20 04:22:22;;;;;;;1.50;1.10;;;11.80;98.20;;;;;;4989273;28;20471;-75
2021/09/20 04:24:49;;;;;;;1.50;1.10;;;11.80;98.20;;;;;;4990146;28;20476;-77
2021/09/20 04:27:16;;;;;;;1.50;1.20;;;11.80;98.20;;;;;;4985939;28;21014;-79
2021/09/20 04:29:43;;;;;;;1.50;1.10;;;11.80;98.20;;;;;;4997659;28;20449;-78
2021/09/20 04:32:26;;;;;;;1.50;1.10;;;11.80;98.20;;;;;;5004638;28;20479;-77
2021/09/20 04:34:53;;;;;;;1.50;1.10;;;11.70;98.20;;;;;;4995213;28;21071;-77
2021/09/20 04:37:21;;;;;;;1.53;1.10;;;11.70;98.20;;;;;;4988629;28;20555;-77
2021/09/20 04:39:48;;;;;;;1.57;1.17;;;11.70;98.20;;;;;;4989936;28;20850;-76
2021/09/20 04:42:15;;;;;;;1.50;1.20;;;11.70;98.20;;;;;;4987752;28;20469;-78
2021/09/20 04:44:42;;;;;;;1.50;1.10;;;11.60;98.20;;;;;;4991194;28;20491;-77
2021/09/20 04:47:11;;;;;;;1.53;1.10;;;11.60;98.20;;;;;;4990239;28;21787;-75
2021/09/20 04:49:38;;;;;;;1.53;1.10;;;11.60;98.20;;;;;;4994791;28;20473;-76
2021/09/20 04:52:05;;;;;;;1.53;1.10;;;11.60;98.20;;;;;;4988983;28;20806;-77
2021/09/20 04:54:32;;;;;;;1.50;1.10;;;11.60;98.20;;;;;;4989829;28;20468;-76
2021/09/20 04:56:59;;;;;;;1.50;1.10;;;11.60;98.20;;;;;;4989908;28;21246;-75
2021/09/20 04:59:26;;;;;;;1.53;1.20;;;11.60;98.20;;;;;;4988807;28;20547;-77
2021/09/20 05:01:53;;;;;;;1.53;1.20;;;11.60;98.20;;;;;;4996874;28;20556;-76
2021/09/20 05:04:21;;;;;;;1.50;1.10;;;11.60;98.20;;;;;;4989273;28;20953;-77
2021/09/20 05:06:48;;;;;;;1.53;1.10;;;11.60;98.20;;;;;;4989770;28;20481;-77
2021/09/20 05:09:15;;;;;;;1.50;1.13;;;11.70;98.20;;;;;;4991543;28;20489;-76
2021/09/20 05:11:42;;;;;;;1.50;1.10;;;11.70;98.20;;;;;;4989569;28;20882;-76
2021/09/20 05:14:09;;;;;;;1.53;1.10;;;11.70;98.20;;;;;;4993009;28;20468;-76
2021/09/20 05:16:36;;;;;;;1.50;1.10;;;11.70;98.20;;;;;;4989507;28;20485;-76
2021/09/20 05:19:03;;;;;;;1.53;1.10;;;11.80;98.20;;;;;;4988781;28;20952;-77
2021/09/20 05:21:31;;;;;;;1.53;1.10;;;11.80;98.20;;;;;;4990650;28;20743;-76
2021/09/20 05:23:58;;;;;;;1.50;1.20;;;11.80;98.20;;;;;;4989648;28;20465;-77
2021/09/20 05:26:25;;;;;;;1.57;1.20;;;11.80;98.20;;;;;;4987566;28;20960;-76
2021/09/20 05:28:51;;;;;;;1.53;1.10;;;11.80;98.20;;;;;;4987731;28;20469;-77
2021/09/20 05:31:21;;;;;;;1.53;1.10;;;11.90;98.20;;;;;;4988676;28;20560;-76
2021/09/20 05:33:51;;;;;;;1.50;1.20;;;11.90;98.20;;;;;;4988933;28;20854;-77
2021/09/20 05:36:18;;;;;;;1.50;1.10;;;11.90;98.20;;;;;;4988014;28;20497;-76
2021/09/20 05:38:46;;;;;;;1.50;1.10;;;11.90;98.20;;;;;;4988071;28;20517;-76
2021/09/20 05:41:13;;;;;;;1.50;1.10;;;12.00;98.20;;;;;;4986231;28;20469;-76
2021/09/20 05:43:40;;;;;;;1.50;1.10;;;12.00;98.20;;;;;;4988822;28;20834;-76
2021/09/20 05:46:07;;;;;;;1.53;1.10;;;12.10;98.20;;;;;;4987314;28;20473;-77
2021/09/20 05:48:34;;;;;;;1.50;1.10;;;12.10;98.20;;;;;;4988485;28;20488;-76
2021/09/20 05:51:01;;;;;;;1.50;1.00;;;12.10;98.20;;;;;;4989442;28;20465;-76
2021/09/20 05:53:28;;;;;;;1.50;1.10;;;12.20;98.20;;;;;;4987698;28;20471;-77
2021/09/20 05:55:56;;;;;;;1.50;1.10;;;12.30;98.20;;;;;;4987120;28;20639;-76
2021/09/20 05:58:23;;;;;;;1.57;1.20;;;12.30;98.20;;;;;;4991398;28;20920;-77
2021/09/20 06:00:50;;;;;;;1.50;1.10;;;12.30;98.20;;;;;;4990068;28;20500;-76
2021/09/20 06:03:17;;;;;;;1.50;1.10;;;12.40;98.20;;;;;;4988605;28;20479;-76
2021/09/20 06:05:44;;;;;;;1.50;1.07;;;12.40;98.20;;;;;;4988352;28;20986;-76
2021/09/20 06:08:11;;;;;;;1.50;1.10;;;12.50;98.20;;;;;;4988374;28;20504;-76
2021/09/20 06:10:38;;;;;;;1.50;1.10;;;12.50;98.20;;;;;;4993492;28;20460;-78
2021/09/20 06:13:07;;;;;;;1.60;1.20;;;12.60;98.20;;;;;;4990404;28;20468;-76
2021/09/20 06:15:34;;;;;;;1.53;1.10;;;12.70;98.20;;;;;;4988331;28;20496;-77
2021/09/20 06:18:01;;;;;;;1.50;1.10;;;12.70;98.20;;;;;;4989586;28;20497;-77
2021/09/20 06:20:28;;;;;;;1.53;1.10;;;12.80;98.20;;;;;;4990046;28;20759;-77
2021/09/20 06:22:55;;;;;;;1.57;1.07;;;12.80;98.20;;;;;;4990277;28;20926;-77
2021/09/20 06:25:23;;;;;;;1.50;1.00;;;12.90;98.20;;;;;;4988079;28;20983;-77
2021/09/20 06:27:50;;;;;;;1.57;1.10;;;12.90;98.20;;;;;;4989186;28;20485;-77
2021/09/20 06:30:19;;;;;;;1.53;1.00;;;13.00;98.20;;;;;;4988803;28;20512;-76
2021/09/20 06:32:46;;;;;;;1.50;1.10;;;13.10;98.20;;;;;;4988860;28;20563;-76
2021/09/20 06:35:14;;;;;;;1.50;1.00;;;13.10;98.20;;;;;;4987476;28;20457;-77
2021/09/20 06:37:41;;;;;;;1.50;1.10;;;13.20;98.20;;;;;;4987826;28;20499;-76
2021/09/20 06:40:11;;;;;;;1.50;1.10;;;13.30;98.20;;;;;;4988702;28;20995;-77
2021/09/20 06:42:38;;;;;;;1.60;1.10;;;13.30;98.20;;;;;;4987535;28;20553;-77
2021/09/20 06:45:06;;;;;;;1.50;1.00;;;13.40;98.20;;;;;;4986885;28;20468;-76
2021/09/20 06:47:34;;;;;;;1.57;1.00;;;13.50;98.20;;;;;;4987945;28;20480;-76
2021/09/20 06:50:01;;;;;;;1.50;1.10;;;13.50;98.20;;;;;;4985312;28;20473;-76
2021/09/20 06:52:28;;;;;;;1.50;1.10;;;13.60;98.20;;;;;;4987951;28;21027;-76
2021/09/20 06:54:55;;;;;;;1.50;1.00;;;13.60;98.20;;;;;;4986933;28;20530;-77
2021/09/20 06:57:22;;;;;;;1.50;1.00;;;13.70;98.20;;;;;;4988554;28;20579;-77
2021/09/20 06:59:49;;;;;;;1.53;1.00;;;13.70;98.20;;;;;;4988386;28;20472;-77
2021/09/20 07:02:16;;;;;;;1.57;1.10;;;13.80;98.20;;;;;;4989041;28;20567;-77
2021/09/20 07:04:44;;;;;;;1.50;1.10;;;13.80;98.20;;;;;;4989618;28;20465;-77
2021/09/20 07:07:12;;;;;;;1.57;1.10;;;13.80;98.20;;;;;;4991687;28;20517;-77
2021/09/20 07:09:39;;;;;;;1.53;1.00;;;13.90;98.20;;;;;;4992797;28;20468;-76
2021/09/20 07:12:06;;;;;;;1.50;1.00;;;14.00;98.20;;;;;;4992364;28;20499;-76
2021/09/20 07:14:33;;;;;;;1.57;1.00;;;14.00;98.20;;;;;;4988779;28;20468;-77
2021/09/20 07:17:00;;;;;;;1.50;1.03;;;14.10;98.20;;;;;;4991766;28;20908;-76
2021/09/20 07:19:27;;;;;;;1.50;1.00;;;14.10;98.20;;;;;;4991592;28;20484;-77
2021/09/20 07:21:56;;;;;;;1.50;0.90;;;14.30;98.20;;;;;;4983846;28;20465;-76
2021/09/20 07:24:22;;;;;;;1.53;1.00;;;14.30;98.20;;;;;;4991769;28;20469;-76
2021/09/20 07:32:03;;;;;;;1.50;1.00;;;14.60;98.20;;;;;;5955011;23;20930;-79
2021/09/20 07:34:33;;;;;;;1.50;1.00;;;14.70;98.20;;;;;;4990553;28;20653;-78
2021/09/20 07:37:04;;;;;;;1.50;1.00;;;14.70;97.90;;;;;;4997540;28;20477;-79
2021/09/20 07:39:32;;;;;;;1.50;1.00;;;14.80;97.40;;;;;;4997485;28;20459;-79
2021/09/20 07:41:59;;;;;;;1.50;1.00;;;14.80;96.80;;;;;;4999390;28;20999;-79
2021/09/20 07:44:25;;;;;;;1.50;1.00;;;14.90;97.10;;;;;;5012396;23;20454;-77
2021/09/20 07:46:52;;;;;;;1.50;1.00;;;14.90;96.80;;;;;;5007265;28;20467;-78
2021/09/20 07:49:19;;;;;;;1.57;1.00;;;15.00;97.10;;;;;;4997383;28;20903;-79
2021/09/20 07:51:46;;;;;;;1.50;1.00;;;15.10;96.60;;;;;;5005750;28;20471;-76
2021/09/20 07:54:14;;;;;;;1.50;1.00;;;15.10;94.80;;;;;;5001006;28;20565;-78
2021/09/20 07:56:41;;;;;;;1.50;0.90;;;15.10;94.60;;;;;;4986042;28;20508;-76
2021/09/20 07:59:08;;;;;;;1.50;0.90;;;15.10;94.80;;;;;;4989600;28;20480;-79
2021/09/20 08:01:34;;;;;;;1.50;0.90;;;15.10;94.80;;;;;;4992249;28;20475;-79
2021/09/20 08:04:01;;;;;;;1.60;1.20;;;15.10;94.90;;;;;;4991265;28;20839;-79
2021/09/20 08:06:29;;;;;;;1.60;1.20;;;15.20;94.80;;;;;;4983822;28;20469;-77
2021/09/20 08:08:56;;;;;;;1.50;1.10;;;15.30;95.30;;;;;;4984768;28;20461;-78
2021/09/20 08:11:24;;;;;;;1.53;1.00;;;15.40;93.80;;;;;;4986724;28;20477;-78
2021/09/20 08:13:51;;;;;;;1.50;1.00;;;15.60;93.30;;;;;;4980309;28;20462;-80
2021/09/20 08:16:17;;;;;;;1.50;1.00;;;15.60;93.70;;;;;;4982428;28;20485;-79
2021/09/20 08:18:44;;;;;;;1.57;1.00;;;15.70;93.50;;;;;;4987647;28;20476;-79
2021/09/20 08:21:11;;;;;;;1.50;1.00;;;15.70;93.50;;;;;;4972151;28;20469;-76
2021/09/20 08:23:38;;;;;;;1.53;1.00;;;15.70;92.90;;;;;;4980758;28;20472;-77
2021/09/20 08:26:06;;;;;;;1.50;0.93;;;15.70;93.50;;;;;;4981474;28;20482;-76
2021/09/20 08:28:34;;;;;;;1.50;1.00;;;15.70;92.70;;;;;;4980816;28;20521;-77
2021/09/20 08:31:02;;;;;;;1.50;1.00;;;15.70;93.60;;;;;;4971998;28;20956;-77
2021/09/20 08:33:29;;;;;;;1.50;1.00;;;15.80;93.30;;;;;;4986301;28;20493;-77
2021/09/20 08:35:56;;;;;;;1.53;1.00;;;15.90;93.10;;;;;;4972249;28;20485;-78
2021/09/20 08:38:23;;;;;;;1.50;1.00;;;16.00;92.00;;;;;;4983800;28;20572;-78
2021/09/20 08:40:50;;;;;;;1.50;0.90;;;16.10;91.00;;;;;;4982072;28;20465;-77
2021/09/20 08:43:17;;;;;;;1.50;1.00;;;16.10;90.80;;;;;;4982678;28;20473;-77
2021/09/20 08:45:45;;;;;;;1.70;1.60;;;16.30;91.90;;;;;;4982089;28;20508;-76
2021/09/20 08:48:12;;;;;;;1.50;1.00;;;16.40;91.40;;;;;;4983198;28;20469;-77
2021/09/20 08:50:39;;;;;;;1.50;0.90;;;16.40;91.20;;;;;;4977622;28;20470;-78
2021/09/20 08:53:08;;;;;;;1.50;0.90;;;16.60;91.90;;;;;;4971602;28;20469;-77
2021/09/20 08:55:35;;;;;;;1.53;1.00;;;16.60;90.80;;;;;;4969582;28;20485;-77
2021/09/20 08:58:03;;;;;;;1.53;0.90;;;16.70;89.60;;;;;;4977901;28;20490;-77
2021/09/20 09:00:30;;;;;;;1.50;0.90;;;16.70;90.10;;;;;;4988990;28;20538;-78
2021/09/20 09:03:00;;;;;;;1.53;1.00;;;16.80;90.60;;;;;;4987994;28;20472;-77
2021/09/20 09:05:29;;;;;;;1.50;0.90;;;16.90;90.50;;;;;;4980193;28;21194;-78
2021/09/20 09:07:58;;;;;;;1.50;0.93;;;17.00;90.80;;;;;;4973461;28;21060;-78
2021/09/20 09:10:27;;;;;;;1.50;1.00;;;17.20;90.30;;;;;;4985504;28;20469;-77
2021/09/20 09:12:54;;;;;;;1.50;0.90;;;17.20;88.80;;;;;;4978881;28;20484;-77
2021/09/20 09:15:23;;;;;;;1.50;0.97;;;17.20;89.30;;;;;;4969365;28;20490;-78
2021/09/20 09:17:53;;;;;;;1.50;0.90;;;17.30;88.20;;;;;;4970189;28;20572;-77
2021/09/20 09:20:24;;;;;;;1.50;0.90;;;17.40;88.50;;;;;;4970918;28;20469;-77
2021/09/20 09:22:52;;;;;;;1.50;0.90;;;17.50;87.20;;;;;;4977755;28;20476;-79
2021/09/20 09:25:21;;;;;;;1.53;1.00;;;17.60;87.70;;;;;;4988390;28;20504;-78
2021/09/20 09:27:50;;;;;;;1.50;0.93;;;17.60;86.80;;;;;;4986236;28;20465;-77
2021/09/20 09:30:20;;;;;;;1.50;0.90;;;17.80;87.60;;;;;;4977354;28;20470;-77
2021/09/20 09:32:48;;;;;;;1.53;1.00;;;17.90;86.20;;;;;;4988977;28;20469;-77
2021/09/20 09:35:17;;;;;;;1.50;0.90;;;18.10;85.50;;;;;;4987839;28;20489;-77
2021/09/20 09:37:48;;;;;;;1.50;0.90;;;18.30;86.00;;;;;;4983406;28;20488;-77
2021/09/20 09:40:19;;;;;;;1.50;0.90;;;18.40;86.00;;;;;;4976416;28;20511;-77
2021/09/20 09:42:46;;;;;;;1.60;1.10;;;18.30;84.90;;;;;;4983292;28;20466;-77
2021/09/20 09:45:20;;;;;;;1.53;0.93;;;18.40;85.70;;;;;;4984867;28;20496;-77
2021/09/20 09:47:49;;;;;;;1.50;0.90;;;18.50;85.50;;;;;;4981969;28;20465;-77
2021/09/20 09:50:21;;;;;;;1.50;0.90;;;18.60;84.80;;;;;;4975562;28;20467;-77
2021/09/20 09:52:52;;;;;;;1.50;0.97;;;18.80;85.00;;;;;;4967129;28;20474;-76
2021/09/20 09:55:19;;;;;;;1.57;1.00;;;18.90;85.10;;;;;;4982413;28;20488;-78
2021/09/20 09:57:48;;;;;;;1.50;0.90;;;18.90;84.70;;;;;;4972959;28;20509;-77
2021/09/20 10:00:18;;;;;;;1.50;0.90;;;19.00;84.00;;;;;;4978942;28;21014;-77
2021/09/20 10:02:46;;;;;;;1.50;0.90;;;19.00;83.10;;;;;;4967598;28;20548;-77
2021/09/20 10:05:15;;;;;;;1.60;1.10;;;19.10;84.30;;;;;;4967702;28;20493;-77
2021/09/20 10:07:44;;;;;;;1.50;0.90;;;19.10;83.30;;;;;;4978482;28;20457;-77
2021/09/20 10:10:18;;;;;;;1.50;0.90;;;19.20;83.70;;;;;;4979517;28;20488;-76
2021/09/20 10:12:47;;;;;;;1.93;1.73;;;19.30;83.10;;;;;;4975512;28;20465;-77
2021/09/20 10:15:15;;;;;;;1.50;0.90;;;19.30;82.60;;;;;;4969159;28;20596;-76
2021/09/20 10:17:43;;;;;;;1.50;0.90;;;19.40;83.30;;;;;;4968584;28;20502;-75
2021/09/20 10:20:13;;;;;;;1.50;0.90;;;19.50;81.70;;;;;;4969715;28;20476;-78
2021/09/20 10:22:40;;;;;;;1.50;0.90;;;19.60;82.50;;;;;;4977444;28;20472;-77
2021/09/20 10:25:09;;;;;;;1.50;0.90;;;19.70;80.90;;;;;;4968889;28;20494;-77
2021/09/20 10:27:38;;;;;;;1.50;0.90;;;19.80;81.80;;;;;;4968637;28;20505;-77
2021/09/20 10:30:08;;;;;;;1.50;0.90;;;19.80;81.40;;;;;;4976044;28;20472;-78
2021/09/20 10:32:35;;;;;;;1.60;1.00;;;19.90;81.10;;;;;;4986585;28;20465;-78
2021/09/20 10:35:26;;;;;;;1.50;1.00;;;19.90;80.60;;;;;;4975319;28;20489;-79
2021/09/20 10:37:53;;;;;;;1.50;0.90;;;19.90;80.60;;;;;;4979729;28;20576;-78
2021/09/20 10:40:20;;;;;;;1.50;1.00;;;20.00;80.80;;;;;;4985406;28;20469;-78
2021/09/20 10:43:03;;;;;;;1.50;0.90;;;20.10;80.30;;;;;;4982772;28;20472;-79
2021/09/20 10:45:53;;;;;;;1.60;1.00;;;20.10;79.80;;;;;;4971633;28;20532;-78
2021/09/20 10:48:33;;;;;;;1.50;0.90;;;20.00;81.10;;;;;;4986207;28;20524;-78
2021/09/20 10:51:03;;;;;;;1.70;1.30;;;20.10;81.10;;;;;;4989235;28;20468;-78
2021/09/20 10:53:34;;;;;;;1.50;0.90;;;20.00;80.10;;;;;;4980133;28;20955;-79
2021/09/20 10:56:22;;;;;;;1.50;0.90;;;19.80;81.40;;;;;;4985512;28;20576;-78
2021/09/20 10:59:34;;;;;;;1.50;0.90;;;19.80;81.00;;;;;;4980641;28;20489;-78
2021/09/20 11:02:13;;;;;;;1.50;0.90;;;19.80;81.00;;;;;;4984951;28;20469;-78
2021/09/20 11:04:41;;;;;;;1.50;0.90;;;19.70;81.10;;;;;;4972891;28;20485;-78
2021/09/20 11:07:18;;;;;;;1.50;0.90;;;19.50;80.90;;;;;;4982212;28;20462;-78
2021/09/20 11:10:04;;;;;;;1.47;0.90;;;19.40;81.60;;;;;;4984607;28;20531;-77
2021/09/20 11:12:34;;;;;;;1.50;0.90;;;19.40;82.30;;;;;;4975170;28;20460;-78
2021/09/20 11:15:04;;;;;;;1.50;0.90;;;19.40;82.10;;;;;;4990748;28;20583;-78
2021/09/20 11:17:41;;;;;;;1.50;0.90;;;19.60;82.00;;;;;;4987183;28;20485;-78
2021/09/20 11:20:40;;;;;;;1.50;0.90;;;19.90;80.70;;;;;;4985855;28;20540;-78
2021/09/20 11:23:19;;;;;;;1.50;0.90;;;20.00;80.50;;;;;;4970960;28;20476;-78
2021/09/20 11:26:05;;;;;;;1.50;0.97;;;20.10;80.90;;;;;;4976044;28;20486;-78
2021/09/20 11:28:33;;;;;;;1.50;0.90;;;20.20;80.90;;;;;;4986193;28;20464;-78
2021/09/20 11:31:00;;;;;;;1.50;0.90;;;20.20;79.60;;;;;;4992155;28;20469;-77
2021/09/20 11:33:36;;;;;;;1.50;0.90;;;20.40;80.20;;;;;;4991745;28;20472;-78
2021/09/20 11:36:14;;;;;;;1.50;0.90;;;20.60;80.10;;;;;;4990933;28;20488;-78
2021/09/20 11:38:41;;;;;;;1.50;0.90;;;20.60;79.80;;;;;;4986039;28;20488;-78
2021/09/20 11:41:18;;;;;;;1.50;0.90;;;20.50;79.10;;;;;;4989848;28;20644;-77
2021/09/20 11:43:45;;;;;;;1.50;1.00;;;20.50;79.40;;;;;;4982930;28;20473;-78
2021/09/20 11:46:12;;;;;;;1.50;1.00;;;20.50;79.80;;;;;;4977865;28;20504;-78
2021/09/20 11:48:40;;;;;;;1.50;0.90;;;20.50;79.60;;;;;;4974763;28;20503;-80
2021/09/20 11:51:07;;;;;;;1.50;0.90;;;20.70;79.20;;;;;;4988983;28;20473;-79
2021/09/20 11:53:34;;;;;;;1.50;0.90;;;20.60;79.70;;;;;;4983007;28;20485;-76
2021/09/20 11:56:00;;;;;;;1.50;0.90;;;20.60;78.20;;;;;;4982043;28;20489;-78
2021/09/20 11:58:27;;;;;;;1.50;0.90;;;20.50;79.50;;;;;;4988510;28;20504;-78
2021/09/20 12:00:54;;;;;;;1.50;0.90;;;20.60;79.80;;;;;;4989603;28;20513;-78
2021/09/20 12:03:24;;;;;;;1.50;0.90;;;20.60;78.60;;;;;;4988855;28;20485;-77
2021/09/20 12:05:53;;;;;;;1.50;0.90;;;20.60;78.50;;;;;;4976938;28;20843;-78
2021/09/20 12:08:21;;;;;;;1.87;1.67;;;20.40;78.30;;;;;;4980956;28;20457;-78
2021/09/20 12:10:49;;;;;;;1.50;0.90;;;20.10;78.60;;;;;;4977501;28;20795;-78
2021/09/20 12:13:18;;;;;;;1.50;0.90;;;20.10;79.50;;;;;;4979461;28;20839;-78
2021/09/20 12:15:46;;;;;;;1.50;0.90;;;20.10;80.00;;;;;;4975491;28;20517;-78
2021/09/20 12:18:15;;;;;;;1.50;0.90;;;20.10;81.00;;;;;;4984006;28;20488;-80
2021/09/20 12:20:43;;;;;;;1.47;0.90;;;20.20;79.60;;;;;;4976090;28;20486;-79
2021/09/20 12:23:14;;;;;;;1.50;0.90;;;20.10;79.20;;;;;;4972549;28;20485;-78
2021/09/20 12:25:44;;;;;;;1.50;0.90;;;20.10;79.80;;;;;;4981646;28;20576;-78
2021/09/20 12:28:24;;;;;;;1.50;0.90;;;20.10;79.20;;;;;;4983278;28;20474;-77
2021/09/20 12:31:02;;;;;;;1.47;0.90;;;20.00;79.70;;;;;;4970187;28;20487;-78
2021/09/20 12:33:30;;;;;;;1.47;0.90;;;20.00;79.30;;;;;;4974758;28;20473;-79
2021/09/20 12:35:57;;;;;;;1.50;0.90;;;20.00;80.20;;;;;;4976679;28;20488;-78
2021/09/20 12:38:34;;;;;;;1.50;0.90;;;20.00;79.40;;;;;;4979362;28;20480;-78
2021/09/20 12:41:11;;;;;;;1.50;0.87;;;20.00;79.20;;;;;;4980668;28;20652;-78
2021/09/20 12:43:38;;;;;;;1.50;0.90;;;20.00;79.30;;;;;;4973458;28;21003;-78
2021/09/20 12:46:14;;;;;;;1.40;0.90;;;20.10;79.90;;;;;;4982620;28;20797;-78
2021/09/20 12:48:42;;;;;;;1.50;0.90;;;20.10;80.20;;;;;;4975616;28;20464;-77
2021/09/20 12:51:11;;;;;;;1.47;0.90;;;20.10;78.80;;;;;;4976349;28;20486;-78
2021/09/20 12:53:41;;;;;;;1.50;0.90;;;20.00;79.60;;;;;;4969600;28;20496;-78
2021/09/20 12:56:09;;;;;;;1.50;0.90;;;20.00;79.60;;;;;;4981366;28;20489;-78
2021/09/20 12:58:38;;;;;;;1.50;0.90;;;19.90;79.90;;;;;;4988128;28;20523;-78
2021/09/20 13:01:08;;;;;;;1.50;0.90;;;19.90;79.20;;;;;;4970590;28;20466;-78